Time,TemperatureF,DewpointF,PressureIn,WindDirection,WindDirectionDegrees,WindSpeedMPH,WindSpeedGustMPH,Humidity,HourlyPrecipIn,Conditions,Clouds,dailyrainin,SolarRadiationWatts/m^2,SoftwareType,DateUTC
2013-04-21 00:21:00,29.0,27.0,-100.00,West,275,0.0,0.0,94,0.00,,,0.02,0.000000,,2013-04-21 07:21:00,
2013-04-21 00:31:00,29.0,27.0,-100.00,West,275,0.0,0.0,94,0.00,,,0.02,0.000000,,2013-04-21 07:31:00,
2013-04-21 00:41:00,29.0,27.0,-100.00,West,275,0.0,0.0,94,0.00,,,0.02,0.000000,,2013-04-21 07:41:00,
2013-04-21 00:52:00,29.0,27.0,-100.00,West,275,0.0,0.0,94,0.00,,,0.02,0.000000,,2013-04-21 07:52:00,
2013-04-21 01:21:00,29.0,27.0,-100.00,West,260,0.0,4.0,92,0.00,,,0.01,0.000000,,2013-04-21 08:21:00,
2013-04-21 01:32:00,29.0,27.0,-100.00,West,260,0.0,4.0,92,0.00,,,0.01,0.000000,,2013-04-21 08:32:00,
2013-04-21 01:41:00,29.0,27.0,-100.00,West,260,0.0,4.0,92,0.00,,,0.01,0.000000,,2013-04-21 08:41:00,
2013-04-21 01:52:00,29.0,27.0,-100.00,West,260,0.0,4.0,92,0.00,,,0.01,0.000000,,2013-04-21 08:52:00,
2013-04-21 02:21:00,28.0,26.0,-100.00,West,273,0.0,4.0,91,0.00,,,0.01,0.000000,,2013-04-21 09:21:00,
2013-04-21 02:32:00,28.0,26.0,-100.00,West,273,0.0,4.0,91,0.00,,,0.01,0.000000,,2013-04-21 09:32:00,
2013-04-21 02:42:00,28.0,26.0,-100.00,West,273,0.0,4.0,91,0.00,,,0.01,0.000000,,2013-04-21 09:42:00,
2013-04-21 02:52:00,28.0,26.0,-100.00,West,273,0.0,4.0,91,0.00,,,0.01,0.000000,,2013-04-21 09:52:00,
2013-04-21 03:22:00,28.0,26.0,-100.00,West,275,0.0,4.0,93,0.00,,,0.01,0.000000,,2013-04-21 10:22:00,
2013-04-21 03:32:00,28.0,26.0,-100.00,West,275,0.0,4.0,93,0.00,,,0.01,0.000000,,2013-04-21 10:32:00,
2013-04-21 03:42:00,28.0,26.0,-100.00,West,275,0.0,4.0,93,0.00,,,0.01,0.000000,,2013-04-21 10:42:00,
2013-04-21 03:52:00,28.0,26.0,-100.00,West,275,0.0,4.0,93,0.00,,,0.01,0.000000,,2013-04-21 10:52:00,
2013-04-21 04:22:00,27.0,25.0,-100.00,WNW,290,0.0,4.0,93,0.00,,,0.01,0.000000,,2013-04-21 11:22:00,
2013-04-21 04:33:00,27.0,25.0,-100.00,WNW,290,0.0,4.0,93,0.00,,,0.01,0.000000,,2013-04-21 11:33:00,
2013-04-21 04:42:00,27.0,25.0,-100.00,WNW,290,0.0,4.0,93,0.00,,,0.01,0.000000,,2013-04-21 11:42:00,
2013-04-21 04:52:00,27.0,25.0,-100.00,WNW,290,0.0,4.0,93,0.00,,,0.01,0.000000,,2013-04-21 11:52:00,
2013-04-21 05:22:00,27.0,24.0,-100.00,West,277,0.0,5.0,90,0.00,,,0.01,0.000000,,2013-04-21 12:22:00,
2013-04-21 05:31:00,27.0,24.0,-100.00,West,277,0.0,5.0,90,0.00,,,0.01,0.000000,,2013-04-21 12:31:00,
2013-04-21 05:42:00,27.0,24.0,-100.00,West,277,0.0,5.0,90,0.00,,,0.01,0.000000,,2013-04-21 12:42:00,
2013-04-21 05:52:00,27.0,24.0,-100.00,West,277,0.0,5.0,90,0.00,,,0.01,0.000000,,2013-04-21 12:52:00,
2013-04-21 06:21:00,27.0,24.0,-100.00,WNW,286,0.0,4.0,90,0.00,,,0.01,0.000000,,2013-04-21 13:21:00,
2013-04-21 06:32:00,27.0,24.0,-100.00,WNW,286,0.0,4.0,90,0.00,,,0.01,0.000000,,2013-04-21 13:32:00,
2013-04-21 06:42:00,27.0,24.0,-100.00,WNW,286,0.0,4.0,90,0.00,,,0.01,0.000000,,2013-04-21 13:42:00,
2013-04-21 06:52:00,27.0,24.0,-100.00,WNW,286,0.0,4.0,90,0.00,,,0.01,0.000000,,2013-04-21 13:52:00,
2013-04-21 07:21:00,28.0,25.0,-100.00,WNW,284,0.0,4.0,89,0.00,,,0.01,12.000000,,2013-04-21 14:21:00,
2013-04-21 07:32:00,28.0,25.0,-100.00,WNW,284,0.0,4.0,89,0.00,,,0.01,12.000000,,2013-04-21 14:32:00,
2013-04-21 07:42:00,28.0,25.0,-100.00,WNW,284,0.0,4.0,89,0.00,,,0.01,12.000000,,2013-04-21 14:42:00,
2013-04-21 07:52:00,28.0,25.0,-100.00,WNW,284,0.0,4.0,89,0.00,,,0.01,12.000000,,2013-04-21 14:52:00,
2013-04-21 08:22:00,33.0,28.0,-100.00,SW,230,0.0,4.0,83,0.00,,,0.01,53.000000,,2013-04-21 15:22:00,
2013-04-21 08:33:00,33.0,28.0,-100.00,SW,230,0.0,4.0,83,0.00,,,0.01,53.000000,,2013-04-21 15:33:00,
2013-04-21 08:42:00,33.0,28.0,-100.00,SW,230,0.0,4.0,83,0.00,,,0.01,53.000000,,2013-04-21 15:42:00,
2013-04-21 08:53:00,33.0,28.0,-100.00,SW,230,0.0,4.0,83,0.00,,,0.01,53.000000,,2013-04-21 15:53:00,
2013-04-21 09:22:00,45.0,22.0,-100.00,ENE,61,0.0,8.0,40,0.00,,,0.01,108.000000,,2013-04-21 16:22:00,
2013-04-21 09:32:00,45.0,22.0,-100.00,ENE,61,0.0,8.0,40,0.00,,,0.01,108.000000,,2013-04-21 16:32:00,
2013-04-21 10:22:00,45.0,25.0,-100.00,ESE,108,0.0,6.0,46,0.00,,,0.00,155.000000,,2013-04-21 17:22:00,
2013-04-21 10:32:00,45.0,25.0,-100.00,ESE,108,0.0,6.0,46,0.00,,,0.00,155.000000,,2013-04-21 17:32:00,
2013-04-21 10:42:00,45.0,25.0,-100.00,ESE,108,0.0,6.0,46,0.00,,,0.00,155.000000,,2013-04-21 17:42:00,
2013-04-21 10:52:00,45.0,25.0,-100.00,ESE,108,0.0,6.0,46,0.00,,,0.00,155.000000,,2013-04-21 17:52:00,
2013-04-21 11:22:00,47.0,28.0,-100.00,NE,40,0.0,6.0,48,0.00,,,0.00,177.000000,,2013-04-21 18:22:00,
2013-04-21 11:32:00,47.0,28.0,-100.00,NE,40,0.0,6.0,48,0.00,,,0.00,177.000000,,2013-04-21 18:32:00,
2013-04-21 11:42:00,47.0,28.0,-100.00,NE,40,0.0,6.0,48,0.00,,,0.00,177.000000,,2013-04-21 18:42:00,
2013-04-21 11:52:00,47.0,28.0,-100.00,NE,40,0.0,6.0,48,0.00,,,0.00,177.000000,,2013-04-21 18:52:00,
2013-04-21 12:21:00,47.0,32.0,-100.00,SE,135,0.0,7.0,56,0.00,,,0.00,153.000000,,2013-04-21 19:21:00,
2013-04-21 12:32:00,47.0,32.0,-100.00,SE,135,0.0,7.0,56,0.00,,,0.00,153.000000,,2013-04-21 19:32:00,
2013-04-21 12:42:00,47.0,32.0,-100.00,SE,135,0.0,7.0,56,0.00,,,0.00,153.000000,,2013-04-21 19:42:00,
2013-04-21 12:52:00,47.0,32.0,-100.00,SE,135,0.0,7.0,56,0.00,,,0.00,153.000000,,2013-04-21 19:52:00,
2013-04-21 13:22:00,58.0,34.0,-100.00,WNW,291,3.0,17.0,41,0.00,,,0.00,919.000000,,2013-04-21 20:22:00,
2013-04-21 14:21:00,51.0,34.0,-100.00,West,261,5.0,18.0,53,-99.99,,,0.00,1021.000000,,2013-04-21 21:21:00,
2013-04-21 14:33:00,51.0,34.0,-100.00,West,261,5.0,18.0,53,-99.99,,,0.00,1021.000000,,2013-04-21 21:33:00,
2013-04-21 14:43:00,51.0,34.0,-100.00,West,261,5.0,18.0,53,-99.99,,,0.00,1021.000000,,2013-04-21 21:43:00,
2013-04-21 14:53:00,51.0,34.0,-100.00,West,261,5.0,18.0,53,-99.99,,,0.00,1021.000000,,2013-04-21 21:53:00,
2013-04-21 15:22:00,44.0,34.0,-100.00,West,271,5.0,17.0,68,0.00,,,0.00,589.000000,,2013-04-21 22:22:00,
2013-04-21 15:33:00,44.0,34.0,-100.00,West,271,5.0,17.0,68,0.00,,,0.00,589.000000,,2013-04-21 22:33:00,
2013-04-21 15:43:00,44.0,34.0,-100.00,West,271,5.0,17.0,68,0.00,,,0.00,589.000000,,2013-04-21 22:43:00,
2013-04-21 15:52:00,44.0,34.0,-100.00,West,271,5.0,17.0,68,0.00,,,0.00,589.000000,,2013-04-21 22:52:00,
2013-04-21 16:22:00,46.0,36.0,-100.00,West,273,5.0,15.0,67,0.00,,,0.00,388.000000,,2013-04-21 23:22:00,
2013-04-21 16:32:00,46.0,36.0,-100.00,West,273,5.0,15.0,67,0.00,,,0.00,388.000000,,2013-04-21 23:32:00,
2013-04-21 16:42:00,46.0,36.0,-100.00,West,273,5.0,15.0,67,0.00,,,0.00,388.000000,,2013-04-21 23:42:00,
2013-04-21 16:52:00,46.0,36.0,-100.00,West,273,5.0,15.0,67,0.00,,,0.00,388.000000,,2013-04-21 23:52:00,
2013-04-21 17:21:00,44.0,35.0,-100.00,WNW,283,3.0,14.0,70,0.00,,,0.00,402.000000,,2013-04-22 00:21:00,
2013-04-21 17:32:00,44.0,35.0,-100.00,WNW,283,3.0,14.0,70,0.00,,,0.00,402.000000,,2013-04-22 00:32:00,
2013-04-21 17:42:00,44.0,35.0,-100.00,WNW,283,3.0,14.0,70,0.00,,,0.00,402.000000,,2013-04-22 00:42:00,
2013-04-21 17:51:00,44.0,35.0,-100.00,WNW,283,3.0,14.0,70,0.00,,,0.00,402.000000,,2013-04-22 00:51:00,
2013-04-21 18:21:00,44.0,36.0,-100.00,West,276,4.0,13.0,72,0.00,,,0.00,198.000000,,2013-04-22 01:21:00,
2013-04-21 18:32:00,44.0,36.0,-100.00,West,276,4.0,13.0,72,0.00,,,0.00,198.000000,,2013-04-22 01:32:00,
2013-04-21 18:41:00,44.0,36.0,-100.00,West,276,4.0,13.0,72,0.00,,,0.00,198.000000,,2013-04-22 01:41:00,
2013-04-21 18:52:00,44.0,36.0,-100.00,West,276,4.0,13.0,72,0.00,,,0.00,198.000000,,2013-04-22 01:52:00,
2013-04-21 19:21:00,40.0,34.0,-100.00,WNW,295,2.0,12.0,79,0.00,,,0.00,79.000000,,2013-04-22 02:21:00,
2013-04-21 19:32:00,40.0,34.0,-100.00,WNW,295,2.0,12.0,79,0.00,,,0.00,79.000000,,2013-04-22 02:32:00,
2013-04-21 19:42:00,40.0,34.0,-100.00,WNW,295,2.0,12.0,79,0.00,,,0.00,79.000000,,2013-04-22 02:42:00,
2013-04-21 19:51:00,40.0,34.0,-100.00,WNW,295,2.0,12.0,79,0.00,,,0.00,79.000000,,2013-04-22 02:51:00,
2013-04-21 20:22:00,38.0,34.0,-100.00,WNW,283,4.0,12.0,84,0.00,,,0.00,15.000000,,2013-04-22 03:22:00,
2013-04-21 20:33:00,38.0,34.0,-100.00,WNW,283,4.0,12.0,84,0.00,,,0.00,15.000000,,2013-04-22 03:33:00,
2013-04-21 20:42:00,38.0,34.0,-100.00,WNW,283,4.0,12.0,84,0.00,,,0.00,15.000000,,2013-04-22 03:42:00,
2013-04-21 20:52:00,38.0,34.0,-100.00,WNW,283,4.0,12.0,84,0.00,,,0.00,15.000000,,2013-04-22 03:52:00,
2013-04-21 21:23:00,38.0,33.0,-100.00,West,270,5.0,15.0,83,0.00,,,0.00,0.000000,,2013-04-22 04:23:00,
2013-04-21 21:32:00,38.0,33.0,-100.00,West,270,5.0,15.0,83,0.00,,,0.00,0.000000,,2013-04-22 04:32:00,
2013-04-21 21:43:00,38.0,33.0,-100.00,West,270,5.0,15.0,83,0.00,,,0.00,0.000000,,2013-04-22 04:43:00,
2013-04-21 21:52:00,38.0,33.0,-100.00,West,270,5.0,15.0,83,0.00,,,0.00,0.000000,,2013-04-22 04:52:00,
2013-04-21 22:22:00,35.0,29.0,-100.00,WNW,290,0.0,15.0,80,0.00,,,0.00,0.000000,,2013-04-22 05:22:00,
2013-04-21 22:32:00,35.0,29.0,-100.00,WNW,290,0.0,15.0,80,0.00,,,0.00,0.000000,,2013-04-22 05:32:00,
2013-04-21 22:42:00,35.0,29.0,-100.00,WNW,290,0.0,15.0,80,0.00,,,0.00,0.000000,,2013-04-22 05:42:00,
2013-04-21 22:52:00,35.0,29.0,-100.00,WNW,290,0.0,15.0,80,0.00,,,0.00,0.000000,,2013-04-22 05:52:00,
2013-04-21 23:21:00,34.0,28.0,-100.00,East,88,0.0,10.0,80,0.00,,,0.00,0.000000,,2013-04-22 06:21:00,
2013-04-21 23:32:00,34.0,28.0,-100.00,East,88,0.0,10.0,80,0.00,,,0.00,0.000000,,2013-04-22 06:32:00,
2013-04-21 23:42:00,34.0,28.0,-100.00,East,88,0.0,10.0,80,0.00,,,0.00,0.000000,,2013-04-22 06:42:00,
2013-04-21 23:51:00,34.0,28.0,-100.00,East,88,0.0,10.0,80,0.00,,,0.00,0.000000,,2013-04-22 06:51:00,